createdAt,value
2019-05-06T00:00:26.941Z,92.87
2019-05-06T00:02:57.866Z,93.09
2019-05-06T00:05:28.538Z,93.43
2019-05-06T00:07:59.410Z,93.84
2019-05-06T00:10:34.125Z,94.87
2019-05-06T00:13:05.537Z,95.14
2019-05-06T00:15:36.582Z,95.56
2019-05-06T00:18:07.290Z,94.71
2019-05-06T00:20:39.522Z,94.54
2019-05-06T00:23:16.100Z,94.49
2019-05-06T00:26:04.045Z,93.46
2019-05-06T00:28:55.863Z,93.07
2019-05-06T00:31:26.592Z,92.37
2019-05-06T00:33:57.280Z,92.91
2019-05-06T00:36:28.099Z,92.03
2019-05-06T00:39:04.633Z,93.43
2019-05-06T00:41:36.735Z,92.53
2019-05-06T00:44:07.501Z,92.83
2019-05-06T00:46:38.564Z,93.07
2019-05-06T00:49:09.273Z,92.90
2019-05-06T00:51:39.939Z,93.00
2019-05-06T00:54:16.646Z,93.24
2019-05-06T00:56:47.625Z,93.30
2019-05-06T00:59:18.442Z,93.18
2019-05-06T01:01:49.260Z,93.58
2019-05-06T01:04:19.967Z,93.90
2019-05-06T01:06:50.818Z,94.27
2019-05-06T01:09:23.541Z,94.67
2019-05-06T01:11:56.541Z,94.56
2019-05-06T01:14:35.205Z,94.14
2019-05-06T01:17:06.096Z,93.97
2019-05-06T01:19:36.801Z,94.80
2019-05-06T01:22:07.517Z,95.37
2019-05-06T01:24:38.221Z,95.12
2019-05-06T01:27:08.909Z,94.87
2019-05-06T01:29:39.627Z,95.01
2019-05-06T01:32:10.358Z,94.83
2019-05-06T01:34:41.256Z,95.42
2019-05-06T01:37:14.143Z,95.32
2019-05-06T01:40:03.945Z,92.71
2019-05-06T01:42:47.012Z,93.21
2019-05-06T01:45:18.182Z,93.57
2019-05-06T01:47:49.447Z,93.84
2019-05-06T01:50:20.270Z,94.24
2019-05-06T01:52:50.936Z,94.96
2019-05-06T01:55:23.903Z,93.75
2019-05-06T01:57:54.716Z,94.10
2019-05-06T02:00:25.412Z,94.74
2019-05-06T02:02:56.501Z,94.96
2019-05-06T02:05:27.197Z,95.94
2019-05-06T02:07:57.884Z,96.06
2019-05-06T02:10:28.545Z,95.87
2019-05-06T02:12:59.258Z,95.95
2019-05-06T02:15:30.347Z,96.48
2019-05-06T02:18:01.054Z,97.53
2019-05-06T02:20:34.009Z,98.03
2019-05-06T02:23:15.336Z,97.32
2019-05-06T02:25:49.108Z,96.17
2019-05-06T02:28:19.901Z,96.06
2019-05-06T02:31:21.401Z,95.33
2019-05-06T02:33:59.433Z,94.88
2019-05-06T02:36:49.087Z,95.28
2019-05-06T02:39:19.758Z,94.20
2019-05-06T02:41:50.481Z,95.10
2019-05-06T02:44:23.823Z,94.39
2019-05-06T02:47:13.745Z,95.73
2019-05-06T02:49:53.477Z,96.02
2019-05-06T02:52:24.861Z,95.89
2019-05-06T02:54:55.631Z,95.18
2019-05-06T02:57:26.581Z,95.27
2019-05-06T02:59:57.257Z,95.46
2019-05-06T03:02:41.941Z,96.37
2019-05-06T03:05:04.022Z,94.24
2019-05-06T03:07:35.320Z,94.67
2019-05-06T03:10:06.454Z,94.78
2019-05-06T03:12:37.188Z,94.51
2019-05-06T03:15:08.166Z,94.34
2019-05-06T03:17:38.903Z,94.71
2019-05-06T03:20:15.134Z,94.77
2019-05-06T03:22:54.547Z,94.66
2019-05-06T03:25:33.125Z,95.56
2019-05-06T03:28:04.194Z,96.28
2019-05-06T03:30:36.565Z,95.89
2019-05-06T03:33:37.018Z,95.77
2019-05-06T03:35:55.855Z,94.91
2019-05-06T03:38:13.733Z,94.79
2019-05-06T03:40:45.838Z,94.56
2019-05-06T03:43:16.820Z,94.08
2019-05-06T03:46:14.234Z,94.76
2019-05-06T03:48:46.557Z,94.66
2019-05-06T03:51:17.253Z,94.58
2019-05-06T03:53:48.307Z,95.78
2019-05-06T03:56:20.253Z,96.12
2019-05-06T03:58:53.701Z,96.49
2019-05-06T04:01:24.712Z,97.45
2019-05-06T04:03:57.287Z,97.71
2019-05-06T04:06:28.642Z,97.98
2019-05-06T04:08:59.857Z,96.86
2019-05-06T04:11:35.830Z,95.96
2019-05-06T04:14:05.380Z,96.23
2019-05-06T04:16:44.102Z,96.86
2019-05-06T04:19:25.819Z,97.56
2019-05-06T04:22:12.758Z,96.79
2019-05-06T04:25:03.905Z,97.45
2019-05-06T04:27:44.681Z,97.09
2019-05-06T04:30:16.434Z,96.71
2019-05-06T04:32:47.239Z,95.95
2019-05-06T04:35:17.988Z,96.77
2019-05-06T04:37:49.692Z,97.37
2019-05-06T04:40:23.965Z,96.95
2019-05-06T04:42:55.261Z,97.44
2019-05-06T04:45:27.366Z,97.62
2019-05-06T04:47:58.758Z,97.08
2019-05-06T04:50:32.934Z,96.94
2019-05-06T04:53:05.805Z,97.10
2019-05-06T04:55:37.339Z,96.65
2019-05-06T04:58:08.258Z,97.07
2019-05-06T05:00:44.341Z,96.01
2019-05-06T05:03:14.338Z,96.48
2019-05-06T05:05:46.822Z,96.46
2019-05-06T05:08:19.351Z,96.99
2019-05-06T05:11:05.768Z,95.75
2019-05-06T05:14:07.875Z,94.92
2019-05-06T05:16:56.899Z,95.67
2019-05-06T05:19:28.649Z,95.21
2019-05-06T05:22:08.558Z,94.70
2019-05-06T05:24:39.353Z,94.81
2019-05-06T05:27:12.405Z,94.18
2019-05-06T05:29:42.722Z,93.74
2019-05-06T05:32:13.538Z,93.51
2019-05-06T05:34:44.628Z,93.40
2019-05-06T05:37:16.858Z,93.74
2019-05-06T05:39:49.060Z,93.89
2019-05-06T05:42:29.497Z,93.61
2019-05-06T05:45:02.497Z,94.04
2019-05-06T05:47:34.128Z,94.70
2019-05-06T05:50:32.515Z,94.29
2019-05-06T05:53:04.880Z,95.17
2019-05-06T05:55:36.119Z,95.99
2019-05-06T05:58:07.166Z,95.01
2019-05-06T06:00:38.523Z,94.06
2019-05-06T06:03:09.555Z,93.84
2019-05-06T06:05:42.646Z,95.06
2019-05-06T06:08:13.075Z,95.59
2019-05-06T06:11:22.997Z,96.54
2019-05-06T06:13:55.508Z,95.23
2019-05-06T06:16:45.973Z,95.29
2019-05-06T06:19:32.866Z,96.41
2019-05-06T06:22:06.357Z,97.23
2019-05-06T06:24:37.439Z,97.13
2019-05-06T06:27:08.254Z,97.83
2019-05-06T06:29:39.274Z,97.76
2019-05-06T06:32:36.724Z,97.89
2019-05-06T06:35:19.076Z,98.28
2019-05-06T06:38:08.021Z,99.55
2019-05-06T06:40:38.702Z,100.00
2019-05-06T06:43:14.529Z,100.00
2019-05-06T06:45:46.188Z,100.00
2019-05-06T06:48:16.881Z,100.00
2019-05-06T06:50:49.270Z,100.00
2019-05-06T06:53:21.822Z,100.00
2019-05-06T06:55:57.930Z,100.00
2019-05-06T06:58:36.697Z,100.00
2019-05-06T07:01:33.209Z,100.00
2019-05-06T07:04:11.260Z,100.00
2019-05-06T07:06:46.305Z,100.00
2019-05-06T07:09:17.067Z,100.00
2019-05-06T07:11:48.178Z,100.00
2019-05-06T07:14:18.894Z,100.00
2019-05-06T07:16:49.610Z,100.00
2019-05-06T07:19:27.312Z,100.00
2019-05-06T07:21:58.892Z,100.00
2019-05-06T07:24:32.308Z,100.00
2019-05-06T07:27:08.703Z,98.91
2019-05-06T07:29:39.559Z,99.35
2019-05-06T07:32:12.279Z,98.31
2019-05-06T07:34:43.260Z,97.42
2019-05-06T07:37:13.969Z,99.06
2019-05-06T07:39:44.658Z,98.85
2019-05-06T07:42:22.758Z,99.42
2019-05-06T07:45:13.597Z,99.76
2019-05-06T07:47:49.844Z,100.00
2019-05-06T07:50:22.507Z,100.00
2019-05-06T07:53:09.454Z,100.00
2019-05-06T07:55:42.473Z,99.40
2019-05-06T07:58:13.853Z,98.30
2019-05-06T08:00:45.429Z,97.51
2019-05-06T08:03:16.457Z,97.09
2019-05-06T08:05:58.041Z,97.13
2019-05-06T08:08:19.780Z,98.35
2019-05-06T08:10:52.600Z,96.60
2019-05-06T08:13:23.014Z,96.29
2019-05-06T08:15:53.849Z,94.69
2019-05-06T08:18:25.832Z,96.31
2019-05-06T08:20:58.294Z,96.22
2019-05-06T08:23:42.780Z,94.64
2019-05-06T08:26:17.334Z,94.04
2019-05-06T08:28:46.090Z,92.58
2019-05-06T08:31:19.003Z,91.14
2019-05-06T08:33:52.441Z,90.98
2019-05-06T08:36:53.312Z,89.26
2019-05-06T08:39:24.259Z,88.04
2019-05-06T08:41:55.361Z,86.49
2019-05-06T08:44:26.648Z,85.93
2019-05-06T08:46:58.774Z,82.88
2019-05-06T08:49:49.679Z,83.32
2019-05-06T08:52:21.792Z,83.72
2019-05-06T08:54:54.627Z,84.44
2019-05-06T08:57:25.650Z,84.97
2019-05-06T08:59:56.569Z,84.04
2019-05-06T09:02:27.274Z,85.57
2019-05-06T09:04:58.547Z,83.07
2019-05-06T09:07:31.995Z,78.32
2019-05-06T09:10:03.942Z,80.49
2019-05-06T09:12:34.812Z,80.74
2019-05-06T09:15:06.231Z,81.09
2019-05-06T09:17:36.925Z,77.17
2019-05-06T09:20:08.436Z,76.24
2019-05-06T09:22:39.242Z,75.88
2019-05-06T09:25:12.710Z,74.56
2019-05-06T09:28:07.829Z,72.86
2019-05-06T09:30:43.982Z,72.33
2019-05-06T09:33:16.886Z,71.68
2019-05-06T09:35:47.630Z,67.51
2019-05-06T09:38:19.755Z,71.56
2019-05-06T09:40:52.522Z,72.26
2019-05-06T09:43:22.978Z,73.56
2019-05-06T09:45:53.970Z,68.26
2019-05-06T09:48:33.046Z,62.66
2019-05-06T09:51:04.261Z,62.48
2019-05-06T09:53:43.243Z,62.95
2019-05-06T09:56:39.523Z,58.43
2019-05-06T09:59:12.782Z,58.37
2019-05-06T10:01:43.775Z,60.55
2019-05-06T10:04:15.343Z,60.32
2019-05-06T10:06:56.271Z,61.26
2019-05-06T10:09:19.462Z,60.32
2019-05-06T10:11:52.421Z,60.31
2019-05-06T10:14:24.642Z,60.66
2019-05-06T10:16:55.598Z,60.01
2019-05-06T10:19:26.401Z,61.61
2019-05-06T10:21:57.229Z,65.07
2019-05-06T10:24:27.943Z,59.86
2019-05-06T10:26:59.862Z,60.67
2019-05-06T10:29:38.881Z,61.84
2019-05-06T10:32:18.664Z,55.70
2019-05-06T10:34:49.533Z,60.21
2019-05-06T10:37:33.568Z,62.24
2019-05-06T10:40:18.720Z,64.70
2019-05-06T10:42:57.199Z,61.52
2019-05-06T10:45:32.162Z,64.67
2019-05-06T10:48:02.578Z,65.43
2019-05-06T10:50:37.143Z,64.31
2019-05-06T10:53:18.742Z,62.97
2019-05-06T10:55:53.618Z,60.43
2019-05-06T10:58:24.400Z,59.82
2019-05-06T11:01:07.132Z,59.26
2019-05-06T11:03:37.839Z,60.29
2019-05-06T11:06:08.964Z,61.39
2019-05-06T11:08:41.919Z,59.49
2019-05-06T11:11:16.959Z,61.50
2019-05-06T11:13:44.690Z,59.60
2019-05-06T11:16:17.057Z,62.73
2019-05-06T11:18:47.956Z,59.79
2019-05-06T11:21:18.900Z,58.68
2019-05-06T11:23:49.648Z,57.21
2019-05-06T11:26:20.359Z,58.61
2019-05-06T11:28:55.005Z,58.33
2019-05-06T11:31:44.649Z,59.16
2019-05-06T11:34:37.210Z,57.98
2019-05-06T11:37:47.232Z,56.37
2019-05-06T11:40:16.527Z,55.74
2019-05-06T11:42:44.552Z,54.77
2019-05-06T11:45:15.791Z,53.21
2019-05-06T11:47:46.733Z,51.72
2019-05-06T11:50:17.434Z,51.35
2019-05-06T11:52:48.191Z,51.94
2019-05-06T11:55:28.901Z,52.59
2019-05-06T11:57:52.907Z,49.59
2019-05-06T12:00:27.309Z,49.62
2019-05-06T12:02:58.031Z,51.68
2019-05-06T12:05:28.787Z,49.30
2019-05-06T12:08:04.496Z,49.33
2019-05-06T12:10:33.100Z,50.08
2019-05-06T12:13:03.914Z,47.00
2019-05-06T12:15:34.747Z,50.69
2019-05-06T12:18:08.188Z,47.69
2019-05-06T12:20:42.538Z,46.46
2019-05-06T12:23:15.946Z,47.04
2019-05-06T12:25:46.991Z,46.21
2019-05-06T12:28:17.847Z,46.43
2019-05-06T12:30:52.406Z,45.84
2019-05-06T12:33:35.572Z,46.14
2019-05-06T12:36:25.203Z,46.16
2019-05-06T12:39:16.979Z,46.19
2019-05-06T12:42:14.766Z,48.06
2019-05-06T12:45:19.624Z,49.52
2019-05-06T12:47:59.186Z,50.76
2019-05-06T12:50:29.902Z,52.57
2019-05-06T12:53:00.611Z,49.38
2019-05-06T12:55:33.651Z,48.16
2019-05-06T12:58:06.194Z,50.15
2019-05-06T13:00:37.089Z,50.90
2019-05-06T13:03:08.513Z,49.62
2019-05-06T13:05:39.400Z,47.96
2019-05-06T13:08:10.209Z,50.18
2019-05-06T13:10:42.100Z,50.71
2019-05-06T13:13:12.996Z,48.64
2019-05-06T13:15:44.898Z,49.91
2019-05-06T13:18:16.570Z,49.20
2019-05-06T13:20:50.761Z,47.77
2019-05-06T13:23:29.281Z,48.17
2019-05-06T13:26:02.088Z,46.78
2019-05-06T13:28:35.358Z,47.01
2019-05-06T13:31:19.337Z,48.00
2019-05-06T13:33:48.426Z,51.13
2019-05-06T13:36:19.417Z,48.33
2019-05-06T13:38:53.455Z,44.96
2019-05-06T13:41:22.552Z,45.20
2019-05-06T13:44:13.153Z,46.62
2019-05-06T13:46:53.953Z,47.92
2019-05-06T13:49:52.081Z,45.42
2019-05-06T13:52:25.899Z,45.80
2019-05-06T13:54:56.595Z,43.80
2019-05-06T13:57:29.242Z,43.67
2019-05-06T14:00:00.238Z,44.82
2019-05-06T14:02:49.128Z,43.93
2019-05-06T14:05:19.816Z,45.68
2019-05-06T14:07:52.945Z,44.52
2019-05-06T14:10:24.166Z,45.32
2019-05-06T14:12:55.131Z,45.08
2019-05-06T14:15:25.828Z,45.33
2019-05-06T14:17:56.514Z,45.39
2019-05-06T14:20:27.252Z,43.56
2019-05-06T14:22:57.951Z,45.12
2019-05-06T14:26:06.393Z,44.98
2019-05-06T14:28:46.357Z,46.14
2019-05-06T14:31:25.897Z,45.33
2019-05-06T14:33:56.686Z,45.55
2019-05-06T14:36:27.904Z,44.29
2019-05-06T14:38:58.708Z,41.63
2019-05-06T14:41:29.552Z,45.45
2019-05-06T14:44:02.671Z,45.60
2019-05-06T14:47:05.898Z,42.37
2019-05-06T14:49:36.602Z,44.40
2019-05-06T14:52:07.369Z,48.19
2019-05-06T14:54:49.906Z,47.17
2019-05-06T14:57:22.719Z,44.73
2019-05-06T14:59:55.807Z,46.67
2019-05-06T15:02:28.006Z,44.79
2019-05-06T15:04:59.050Z,46.53
2019-05-06T15:07:30.208Z,46.37
2019-05-06T15:10:16.557Z,45.58
2019-05-06T15:12:33.898Z,44.96
2019-05-06T15:15:04.806Z,45.91
2019-05-06T15:17:36.889Z,46.55
2019-05-06T15:20:09.291Z,46.05
2019-05-06T15:22:42.207Z,45.58
2019-05-06T15:25:13.218Z,47.55
2019-05-06T15:27:43.940Z,46.58
2019-05-06T15:30:22.876Z,48.28
2019-05-06T15:32:54.161Z,45.45
2019-05-06T15:35:43.901Z,44.35
2019-05-06T15:38:19.544Z,44.90
2019-05-06T15:40:52.474Z,43.81
2019-05-06T15:43:22.997Z,45.19
2019-05-06T15:45:53.848Z,43.44
2019-05-06T15:48:24.877Z,44.48
2019-05-06T15:50:55.592Z,42.13
2019-05-06T15:53:26.590Z,42.01
2019-05-06T15:55:57.473Z,43.18
2019-05-06T15:58:28.185Z,43.30
2019-05-06T16:01:00.036Z,45.82
2019-05-06T16:03:33.420Z,43.73
2019-05-06T16:06:04.142Z,44.76
2019-05-06T16:08:35.320Z,45.81
2019-05-06T16:11:06.230Z,44.66
2019-05-06T16:13:38.319Z,47.03
2019-05-06T16:16:10.029Z,45.42
2019-05-06T16:19:05.367Z,45.11
2019-05-06T16:22:04.372Z,45.82
2019-05-06T16:24:43.060Z,41.40
2019-05-06T16:27:15.323Z,44.18
2019-05-06T16:29:46.152Z,44.52
2019-05-06T16:32:16.925Z,42.86
2019-05-06T16:34:47.592Z,42.69
2019-05-06T16:37:18.834Z,43.27
2019-05-06T16:39:49.605Z,43.55
2019-05-06T16:42:22.418Z,43.86
2019-05-06T16:44:54.296Z,45.31
2019-05-06T16:47:37.628Z,45.26
2019-05-06T16:50:13.005Z,44.56
2019-05-06T16:52:45.784Z,45.07
2019-05-06T16:55:20.866Z,45.49
2019-05-06T16:57:58.687Z,46.35
2019-05-06T17:00:32.278Z,47.06
2019-05-06T17:03:14.626Z,47.81
2019-05-06T17:05:53.976Z,47.24
2019-05-06T17:08:24.759Z,46.10
2019-05-06T17:10:55.544Z,48.08
2019-05-06T17:13:26.333Z,47.85
2019-05-06T17:15:57.057Z,49.93
2019-05-06T17:18:28.203Z,48.32
2019-05-06T17:20:58.926Z,49.84
2019-05-06T17:23:31.875Z,48.47
2019-05-06T17:26:02.091Z,50.36
2019-05-06T17:28:48.325Z,49.30
2019-05-06T17:31:31.942Z,49.92
2019-05-06T17:34:02.856Z,49.76
2019-05-06T17:36:34.886Z,49.95
2019-05-06T17:39:09.133Z,50.28
2019-05-06T17:41:45.925Z,50.10
2019-05-06T17:44:12.908Z,51.17
2019-05-06T17:46:52.840Z,51.97
2019-05-06T17:49:25.594Z,50.56
2019-05-06T17:52:03.772Z,50.10
2019-05-06T17:54:34.578Z,53.25
2019-05-06T17:57:05.619Z,53.52
2019-05-06T17:59:37.804Z,53.21
2019-05-06T18:02:12.417Z,53.04
2019-05-06T18:04:43.620Z,53.99
2019-05-06T18:07:14.336Z,53.40
2019-05-06T18:09:45.320Z,54.83
2019-05-06T18:12:17.630Z,56.02
2019-05-06T18:14:48.602Z,55.22
2019-05-06T18:17:22.084Z,57.38
2019-05-06T18:19:53.176Z,55.49
2019-05-06T18:22:24.274Z,56.03
2019-05-06T18:24:55.168Z,55.70
2019-05-06T18:27:25.907Z,59.21
2019-05-06T18:30:11.386Z,56.59
2019-05-06T18:32:30.112Z,59.53
2019-05-06T18:35:02.699Z,57.54
2019-05-06T18:37:35.107Z,58.87
2019-05-06T18:40:06.362Z,59.04
2019-05-06T18:42:37.524Z,58.74
2019-05-06T18:45:08.826Z,60.62
2019-05-06T18:47:41.863Z,60.37
2019-05-06T18:50:13.130Z,59.53
2019-05-06T18:52:44.057Z,61.19
2019-05-06T18:55:15.148Z,60.44
2019-05-06T18:57:46.057Z,60.86
2019-05-06T19:00:17.412Z,61.48
2019-05-06T19:02:48.235Z,61.81
2019-05-06T19:05:33.447Z,62.89
2019-05-06T19:08:07.059Z,63.62
2019-05-06T19:10:37.777Z,63.47
2019-05-06T19:13:08.822Z,63.62
2019-05-06T19:15:39.584Z,64.07
2019-05-06T19:18:10.310Z,64.65
2019-05-06T19:20:42.459Z,64.90
2019-05-06T19:23:13.454Z,64.14
2019-05-06T19:25:44.159Z,64.87
2019-05-06T19:28:15.046Z,65.38
2019-05-06T19:30:46.114Z,66.01
2019-05-06T19:33:17.860Z,67.03
2019-05-06T19:35:52.176Z,67.90
2019-05-06T19:38:24.508Z,68.93
2019-05-06T19:40:56.096Z,67.83
2019-05-06T19:43:26.825Z,69.03
2019-05-06T19:45:57.507Z,69.46
2019-05-06T19:48:28.475Z,69.31
2019-05-06T19:50:59.500Z,69.09
2019-05-06T19:53:32.252Z,70.60
2019-05-06T19:56:03.106Z,69.73
2019-05-06T19:58:34.176Z,71.75
2019-05-06T20:01:06.249Z,70.83
2019-05-06T20:03:37.268Z,71.19
2019-05-06T20:06:32.334Z,71.95
2019-05-06T20:09:22.268Z,70.92
2019-05-06T20:11:55.349Z,70.88
2019-05-06T20:14:26.308Z,72.76
2019-05-06T20:16:57.008Z,71.94
2019-05-06T20:19:31.088Z,68.87
2019-05-06T20:22:01.951Z,69.91
2019-05-06T20:24:33.393Z,71.81
2019-05-06T20:27:04.594Z,71.14
2019-05-06T20:50:02.441Z,75.65
2019-05-06T20:52:33.249Z,76.15
2019-05-06T20:55:12.445Z,76.04
2019-05-06T20:57:36.887Z,75.48
2019-05-06T21:00:08.205Z,76.74
2019-05-06T21:02:42.488Z,77.08
2019-05-06T21:05:14.062Z,77.44
2019-05-06T21:07:45.035Z,77.50
2019-05-06T21:10:15.923Z,78.12
2019-05-06T21:12:47.468Z,78.06
2019-05-06T21:15:18.813Z,79.44
2019-05-06T21:17:49.649Z,79.09
2019-05-06T21:20:21.022Z,79.41
2019-05-06T21:22:52.746Z,80.16
2019-05-06T21:25:24.695Z,80.79
2019-05-06T21:27:56.037Z,80.90
2019-05-06T21:30:26.918Z,81.27
2019-05-06T21:32:58.427Z,80.69
2019-05-06T21:35:30.480Z,79.94
2019-05-06T21:38:04.510Z,80.25
2019-05-06T21:40:35.260Z,80.24
2019-05-06T21:43:05.957Z,80.27
2019-05-06T21:45:42.423Z,80.20
2019-05-06T21:48:14.419Z,80.62
2019-05-06T21:50:46.992Z,80.72
2019-05-06T21:53:18.752Z,81.03
2019-05-06T21:55:49.442Z,79.99
2019-05-06T21:58:20.221Z,80.17
2019-05-06T22:04:09.541Z,81.73
2019-05-06T22:06:42.773Z,82.25
2019-05-06T22:09:14.208Z,82.82
2019-05-06T22:11:45.857Z,84.02
2019-05-06T22:14:16.541Z,84.73
2019-05-06T22:16:47.349Z,84.91
2019-05-06T22:19:22.431Z,85.52
2019-05-06T22:22:23.654Z,85.82
2019-05-06T22:24:57.793Z,85.96
2019-05-06T22:27:33.278Z,86.55
2019-05-06T22:30:03.198Z,86.95
2019-05-06T22:32:45.678Z,88.14
2019-05-06T22:35:17.523Z,87.44
2019-05-06T22:37:48.223Z,87.58
2019-05-06T22:40:23.533Z,88.17
2019-05-06T22:42:52.922Z,88.29
2019-05-06T22:45:23.699Z,88.07
2019-05-06T22:47:55.018Z,87.22
2019-05-06T22:50:25.875Z,86.13
2019-05-06T22:52:56.577Z,86.63
2019-05-06T22:55:27.335Z,88.50
2019-05-06T22:57:58.042Z,89.40
2019-05-06T23:00:33.086Z,89.74
2019-05-06T23:03:07.024Z,91.78
2019-05-06T23:05:37.895Z,93.48
2019-05-06T23:08:08.690Z,95.48
2019-05-06T23:10:39.373Z,95.38
2019-05-06T23:13:12.248Z,95.02
2019-05-06T23:15:43.526Z,96.06
2019-05-06T23:18:14.212Z,96.14
2019-05-06T23:20:45.889Z,96.68
2019-05-06T23:23:16.653Z,97.44
2019-05-06T23:26:06.396Z,97.54
2019-05-06T23:28:37.095Z,98.59
2019-05-06T23:31:08.010Z,98.75
2019-05-06T23:33:38.681Z,98.11
2019-05-06T23:36:09.544Z,97.19
2019-05-06T23:39:16.256Z,96.81
2019-05-06T23:42:22.920Z,97.23
2019-05-06T23:45:29.545Z,98.45
2019-05-06T23:48:35.894Z,99.39
2019-05-06T23:51:42.536Z,100.00
2019-05-06T23:54:49.057Z,100.00
2019-05-06T23:57:18.202Z,100.00
2019-05-06T23:59:48.925Z,100.00
